Time;durP1;ratioP1;P1;durP2;ratioP2;P2;SDS_P1;SDS_P2;PMS_P1;PMS_P2;Temp;Humidity;BMP_temperature;BMP_pressure;BME280_temperature;BME280_humidity;BME280_pressure;Samples;Min_cycle;Max_cycle;Signal;HPM_P1;HPM_P2
2022/05/23 00:01:53;;;;;;;15.43;10.00;;;17.60;99.90;;;;;;4950952;28;37661;-77
2022/05/23 00:04:20;;;;;;;14.20;10.50;;;17.60;99.90;;;;;;4934450;28;38153;-77
2022/05/23 00:06:46;;;;;;;13.82;9.95;;;17.50;99.90;;;;;;4936652;28;38543;-76
2022/05/23 00:09:12;;;;;;;12.77;10.55;;;17.60;99.90;;;;;;4933996;28;37181;-77
2022/05/23 00:11:39;;;;;;;13.20;10.32;;;17.50;99.90;;;;;;4951140;28;38334;-76
2022/05/23 00:14:05;;;;;;;15.25;10.60;;;17.50;99.90;;;;;;4945814;28;40086;-77
2022/05/23 00:16:38;;;;;;;13.23;10.27;;;17.50;99.90;;;;;;4953359;28;39111;-77
2022/05/23 00:19:04;;;;;;;14.05;10.05;;;17.40;99.90;;;;;;4931196;28;38470;-76
2022/05/23 00:21:31;;;;;;;14.57;9.45;;;17.40;99.90;;;;;;4938667;28;38888;-76
2022/05/23 00:23:57;;;;;;;12.43;9.52;;;17.40;99.90;;;;;;4941267;28;37734;-77
2022/05/23 00:26:23;;;;;;;17.15;11.27;;;17.40;99.90;;;;;;4953564;28;37888;-78
2022/05/23 00:28:49;;;;;;;10.82;8.57;;;17.30;99.90;;;;;;4942731;28;37389;-77
2022/05/23 00:31:16;;;;;;;15.77;9.43;;;17.30;99.90;;;;;;4945274;28;37811;-77
2022/05/23 00:36:28;;;;;;;12.30;9.13;;;17.20;99.90;;;;;;4942843;28;39500;-76
2022/05/23 00:38:54;;;;;;;11.82;8.95;;;17.10;99.90;;;;;;4948577;28;36622;-76
2022/05/23 00:44:26;;;;;;;13.35;9.43;;;17.00;99.90;;;;;;4929613;28;40101;-77
2022/05/23 00:46:54;;;;;;;11.75;9.50;;;17.00;99.90;;;;;;4933907;28;38239;-75
2022/05/23 00:49:25;;;;;;;13.13;9.30;;;16.90;99.90;;;;;;4934182;28;37145;-77
2022/05/23 00:51:52;;;;;;;15.48;10.57;;;16.90;99.90;;;;;;4941632;28;39977;-77
2022/05/23 00:54:20;;;;;;;12.55;9.57;;;16.80;99.90;;;;;;4935392;28;38946;-76
2022/05/23 00:56:49;;;;;;;12.05;9.32;;;16.70;99.90;;;;;;4938032;28;37307;-77
2022/05/23 00:59:19;;;;;;;14.68;10.05;;;16.60;99.90;;;;;;4931072;28;36658;-77
2022/05/23 01:01:46;;;;;;;14.73;10.48;;;16.60;99.90;;;;;;4928821;28;38405;-77
2022/05/23 01:04:12;;;;;;;14.13;10.27;;;16.50;99.90;;;;;;4932709;28;37667;-77
2022/05/23 01:06:38;;;;;;;14.70;10.65;;;16.40;99.90;;;;;;4941948;28;39225;-77
2022/05/23 01:09:04;;;;;;;14.85;11.70;;;16.40;99.90;;;;;;4941434;28;38069;-77
2022/05/23 01:11:31;;;;;;;17.52;11.20;;;16.30;99.90;;;;;;4940336;28;38452;-77
2022/05/23 01:13:57;;;;;;;13.73;11.27;;;16.20;99.90;;;;;;4950688;28;39137;-74
2022/05/23 01:16:25;;;;;;;14.43;11.55;;;16.10;99.90;;;;;;4951332;28;37587;-77
2022/05/23 01:18:51;;;;;;;16.77;12.50;;;16.10;99.90;;;;;;4939264;28;38412;-77
2022/05/23 01:21:50;;;;;;;15.55;11.85;;;16.10;99.90;;;;;;4939160;28;37627;-77
2022/05/23 01:24:34;;;;;;;15.80;11.45;;;16.00;99.90;;;;;;4953448;28;40385;-78
2022/05/23 01:27:02;;;;;;;19.48;12.68;;;16.00;99.90;;;;;;4938439;28;36996;-78
2022/05/23 01:29:28;;;;;;;15.48;12.82;;;16.00;99.90;;;;;;4940249;28;48512;-78
2022/05/23 01:31:57;;;;;;;15.40;12.57;;;15.90;99.90;;;;;;4943238;28;38817;-80
2022/05/23 01:34:23;;;;;;;18.15;13.45;;;15.90;99.90;;;;;;4954968;28;38004;-78
2022/05/23 01:36:49;;;;;;;15.45;12.82;;;15.90;99.90;;;;;;4936578;28;38277;-77
2022/05/23 01:39:15;;;;;;;15.13;12.13;;;15.90;99.90;;;;;;4942581;28;37550;-77
2022/05/23 01:41:41;;;;;;;19.88;14.23;;;15.80;99.90;;;;;;4955937;28;37596;-77
2022/05/23 01:44:07;;;;;;;18.67;14.13;;;15.80;99.90;;;;;;4940888;28;38405;-78
2022/05/23 01:46:33;;;;;;;17.73;14.38;;;15.70;99.90;;;;;;4943157;28;39291;-78
2022/05/23 01:48:59;;;;;;;14.60;13.18;;;15.70;99.90;;;;;;4958931;28;37671;-78
2022/05/23 01:51:26;;;;;;;16.15;13.82;;;15.80;99.90;;;;;;4935889;28;38517;-78
2022/05/23 01:53:52;;;;;;;15.43;13.30;;;15.80;99.90;;;;;;4942170;28;39505;-77
2022/05/23 01:56:18;;;;;;;13.10;11.55;;;15.80;99.90;;;;;;4951008;28;38885;-78
2022/05/23 02:01:28;;;;;;;17.08;12.57;;;15.90;99.90;;;;;;4935729;28;48775;-77
2022/05/23 02:03:54;;;;;;;12.57;11.25;;;16.00;99.90;;;;;;4950485;28;35937;-77
2022/05/23 02:06:21;;;;;;;14.73;10.90;;;16.00;99.90;;;;;;4939220;28;39377;-77
2022/05/23 02:08:47;;;;;;;14.68;11.52;;;16.10;99.90;;;;;;4935510;28;37963;-78
2022/05/23 02:11:14;;;;;;;13.73;11.15;;;16.10;99.90;;;;;;4936094;28;37754;-77
2022/05/23 02:13:43;;;;;;;16.45;11.55;;;16.10;99.90;;;;;;4932114;28;38781;-77
2022/05/23 02:16:10;;;;;;;15.02;11.07;;;16.10;99.90;;;;;;4948323;28;38497;-77
2022/05/23 02:18:36;;;;;;;14.30;10.48;;;16.10;99.90;;;;;;4935013;28;36366;-77
2022/05/23 02:21:03;;;;;;;13.10;11.73;;;16.00;99.90;;;;;;4941282;28;38344;-77
2022/05/23 02:23:29;;;;;;;13.38;10.63;;;15.90;99.90;;;;;;4940477;28;39270;-77
2022/05/23 02:25:55;;;;;;;12.05;10.77;;;16.00;99.90;;;;;;4943850;28;38528;-77
2022/05/23 02:28:22;;;;;;;15.07;10.68;;;16.00;99.90;;;;;;4936382;28;36693;-78
2022/05/23 02:30:48;;;;;;;13.50;10.25;;;16.00;99.90;;;;;;4938699;28;39971;-77
2022/05/23 02:33:15;;;;;;;12.93;10.90;;;16.10;99.90;;;;;;4950882;28;38508;-77
2022/05/23 02:35:42;;;;;;;14.48;9.57;;;16.10;99.90;;;;;;4932656;28;38624;-77
2022/05/23 02:38:08;;;;;;;12.98;10.35;;;16.10;99.90;;;;;;4952742;28;37544;-78
2022/05/23 02:40:34;;;;;;;14.32;10.38;;;16.20;99.90;;;;;;4940987;28;38430;-77
2022/05/23 02:43:00;;;;;;;13.25;10.52;;;16.20;99.90;;;;;;4937231;28;40000;-77
2022/05/23 02:45:26;;;;;;;12.40;9.73;;;16.20;99.90;;;;;;4939338;28;38656;-77
2022/05/23 02:47:53;;;;;;;10.90;9.80;;;16.20;99.90;;;;;;4937492;28;37373;-78
2022/05/23 02:50:19;;;;;;;12.15;9.60;;;16.20;99.90;;;;;;4949698;28;37647;-77
2022/05/23 02:52:45;;;;;;;13.07;10.25;;;16.20;99.90;;;;;;4952865;28;38898;-78
2022/05/23 02:55:12;;;;;;;10.60;9.38;;;16.20;99.90;;;;;;4951807;28;38812;-77
2022/05/23 02:57:38;;;;;;;13.88;9.88;;;16.20;99.90;;;;;;4954550;28;36518;-77
2022/05/23 03:00:07;;;;;;;12.75;8.90;;;16.20;99.90;;;;;;4935905;28;37934;-78
2022/05/23 03:05:18;;;;;;;16.42;10.73;;;16.20;99.90;;;;;;4938435;28;39107;-77
2022/05/23 03:07:45;;;;;;;12.18;9.63;;;16.20;99.90;;;;;;4953180;28;36126;-77
2022/05/23 03:10:12;;;;;;;14.15;9.68;;;16.20;99.90;;;;;;4955679;28;37698;-77
2022/05/23 03:12:38;;;;;;;15.80;10.07;;;16.20;99.90;;;;;;4951377;28;38829;-76
2022/05/23 03:15:05;;;;;;;14.13;10.27;;;16.20;99.90;;;;;;4951384;28;37465;-77
2022/05/23 03:17:32;;;;;;;12.90;10.52;;;16.20;99.90;;;;;;4952179;28;37363;-78
2022/05/23 03:19:58;;;;;;;11.55;9.95;;;16.20;99.90;;;;;;4940834;28;38757;-78
2022/05/23 03:27:54;;;;;;;12.40;9.90;;;16.30;99.90;;;;;;4938816;28;38410;-78
2022/05/23 03:30:20;;;;;;;14.70;10.10;;;16.30;99.90;;;;;;4930795;28;38080;-78
2022/05/23 03:32:46;;;;;;;12.32;9.65;;;16.30;99.90;;;;;;4932253;28;38752;-78
2022/05/23 03:35:13;;;;;;;12.93;9.48;;;16.30;99.90;;;;;;4947329;28;38065;-78
2022/05/23 03:37:39;;;;;;;12.65;9.52;;;16.30;99.90;;;;;;4925702;28;37586;-78
2022/05/23 03:40:06;;;;;;;13.75;9.82;;;16.30;99.90;;;;;;4929029;28;39255;-79
2022/05/23 03:42:33;;;;;;;12.68;9.32;;;16.30;99.90;;;;;;4934220;28;38389;-78
2022/05/23 03:45:00;;;;;;;11.65;8.93;;;16.30;99.90;;;;;;4952445;28;37809;-78
2022/05/23 03:47:26;;;;;;;14.07;9.50;;;16.20;99.90;;;;;;4935804;28;36679;-78
2022/05/23 03:49:52;;;;;;;17.35;10.23;;;16.20;99.90;;;;;;4930664;28;38060;-78
2022/05/23 03:52:20;;;;;;;13.95;9.27;;;16.10;99.90;;;;;;4952763;28;38627;-78
2022/05/23 03:54:46;;;;;;;14.80;10.02;;;16.10;99.90;;;;;;4954940;28;39171;-78
2022/05/23 03:57:12;;;;;;;16.02;10.52;;;16.10;99.90;;;;;;4959551;28;36052;-78
2022/05/23 03:59:38;;;;;;;13.68;10.27;;;16.10;99.90;;;;;;4948786;28;37714;-78
2022/05/23 04:02:04;;;;;;;13.23;10.32;;;16.10;99.90;;;;;;4931436;28;39413;-77
2022/05/23 04:04:32;;;;;;;13.15;10.45;;;16.10;99.90;;;;;;4950403;28;37365;-79
2022/05/23 04:07:00;;;;;;;13.10;9.95;;;16.10;99.90;;;;;;4926553;28;38308;-78
2022/05/23 04:09:27;;;;;;;12.52;10.40;;;16.10;99.90;;;;;;4943667;28;38247;-78
2022/05/23 04:11:54;;;;;;;14.95;10.07;;;16.10;99.90;;;;;;4924085;28;38588;-78
2022/05/23 04:14:20;;;;;;;11.65;9.38;;;16.10;99.90;;;;;;4937508;28;38771;-79
2022/05/23 04:16:47;;;;;;;15.00;10.35;;;16.10;99.90;;;;;;4954426;28;35877;-78
2022/05/23 04:19:13;;;;;;;15.88;10.75;;;16.10;99.90;;;;;;4931827;28;37893;-78
2022/05/23 04:21:41;;;;;;;13.07;10.55;;;16.10;99.90;;;;;;4936964;28;37675;-78
2022/05/23 04:24:08;;;;;;;14.02;9.98;;;16.10;99.90;;;;;;4945723;28;39046;-78
2022/05/23 04:26:35;;;;;;;11.80;9.55;;;16.10;99.90;;;;;;4943604;28;36296;-78
2022/05/23 04:29:02;;;;;;;15.70;10.35;;;16.20;99.90;;;;;;4957227;28;39206;-78
2022/05/23 04:31:28;;;;;;;12.32;9.80;;;16.20;99.90;;;;;;4941521;28;38527;-78
2022/05/23 04:36:39;;;;;;;15.73;10.68;;;16.20;99.90;;;;;;4937221;28;48812;-78
2022/05/23 04:39:05;;;;;;;16.02;10.43;;;16.20;99.90;;;;;;4952829;28;39076;-78
2022/05/23 04:41:31;;;;;;;12.80;9.93;;;16.30;99.90;;;;;;4937860;28;38704;-78
2022/05/23 04:43:57;;;;;;;13.35;9.80;;;16.30;99.90;;;;;;4926524;28;38807;-78
2022/05/23 04:46:23;;;;;;;10.68;8.85;;;16.30;99.90;;;;;;4930035;28;36911;-79
2022/05/23 04:51:34;;;;;;;13.05;9.48;;;16.40;99.90;;;;;;4936228;28;50592;-78
2022/05/23 04:54:00;;;;;;;12.65;9.20;;;16.50;99.90;;;;;;4919354;28;39378;-78
2022/05/23 04:56:27;;;;;;;13.85;9.80;;;16.50;99.90;;;;;;4931692;28;36950;-78
2022/05/23 04:58:55;;;;;;;13.43;9.55;;;16.60;99.90;;;;;;4929088;28;39830;-78
2022/05/23 05:01:21;;;;;;;13.77;9.45;;;16.70;99.90;;;;;;4930121;28;39042;-78
2022/05/23 05:03:48;;;;;;;14.13;9.50;;;16.70;99.90;;;;;;4938025;28;38166;-78
2022/05/23 05:06:14;;;;;;;16.70;10.00;;;16.80;99.90;;;;;;4951015;28;36704;-78
2022/05/23 05:08:40;;;;;;;13.30;9.95;;;16.80;99.90;;;;;;4948073;28;37936;-77
2022/05/23 05:11:06;;;;;;;11.90;8.75;;;16.80;99.90;;;;;;4944518;28;38981;-77
2022/05/23 05:13:34;;;;;;;10.57;9.38;;;16.80;99.90;;;;;;4954726;28;37855;-78
2022/05/23 05:16:02;;;;;;;9.95;8.82;;;16.80;99.90;;;;;;4950272;28;36325;-80
2022/05/23 05:18:30;;;;;;;14.60;9.43;;;16.80;99.90;;;;;;4934907;28;48947;-80
2022/05/23 05:21:02;;;;;;;14.65;10.25;;;16.80;99.90;;;;;;4947969;28;38127;-79
2022/05/23 05:23:36;;;;;;;13.02;9.57;;;16.70;99.90;;;;;;4934930;28;48571;-77
2022/05/23 05:26:05;;;;;;;13.70;9.68;;;16.70;99.90;;;;;;4928644;28;37072;-78
2022/05/23 05:28:33;;;;;;;11.98;9.05;;;16.70;99.90;;;;;;4929287;28;39026;-77
2022/05/23 05:31:11;;;;;;;14.77;10.07;;;16.80;99.90;;;;;;4922406;28;39448;-78
2022/05/23 05:33:42;;;;;;;12.43;9.32;;;16.80;99.90;;;;;;4939436;28;48650;-78
2022/05/23 05:36:16;;;;;;;14.88;9.52;;;16.90;99.90;;;;;;4939097;28;38854;-77
2022/05/23 05:38:49;;;;;;;13.80;9.27;;;16.90;99.90;;;;;;4948629;28;38653;-77
2022/05/23 05:41:20;;;;;;;11.75;9.52;;;16.90;99.90;;;;;;4935885;28;37825;-76
2022/05/23 05:43:51;;;;;;;12.65;9.73;;;16.90;99.90;;;;;;4951457;28;38959;-77
2022/05/23 05:46:25;;;;;;;15.32;10.52;;;16.90;99.90;;;;;;4952770;28;35614;-75
2022/05/23 05:48:51;;;;;;;13.43;8.93;;;17.00;99.90;;;;;;4935952;28;38552;-74
2022/05/23 05:51:20;;;;;;;12.27;8.82;;;17.20;99.90;;;;;;4936538;28;38866;-76
2022/05/23 05:53:49;;;;;;;14.55;9.85;;;17.20;99.90;;;;;;4928874;28;37441;-75
2022/05/23 05:56:15;;;;;;;12.00;9.27;;;17.20;99.90;;;;;;4936369;28;37749;-75
2022/05/23 05:58:41;;;;;;;15.45;10.18;;;17.10;99.90;;;;;;4932746;28;38331;-76
2022/05/23 06:01:08;;;;;;;12.85;8.68;;;17.10;99.90;;;;;;4926779;28;38933;-75
2022/05/23 06:03:34;;;;;;;13.50;9.65;;;17.20;99.90;;;;;;4933798;28;38290;-77
2022/05/23 06:11:31;;;;;;;11.10;8.82;;;17.30;99.90;;;;;;4938139;28;49285;-76
2022/05/23 06:13:59;;;;;;;10.85;9.02;;;17.30;99.90;;;;;;4936617;28;38193;-74
2022/05/23 06:16:28;;;;;;;11.90;8.20;;;17.40;99.90;;;;;;4941558;28;36992;-76
2022/05/23 06:18:54;;;;;;;11.00;8.05;;;17.40;99.90;;;;;;4953652;28;37950;-73
2022/05/23 06:21:22;;;;;;;12.07;9.15;;;17.50;99.90;;;;;;4930951;28;37418;-74
2022/05/23 06:23:48;;;;;;;10.63;8.18;;;17.60;99.90;;;;;;4938974;28;39469;-75
2022/05/23 06:26:16;;;;;;;13.20;7.85;;;17.60;99.90;;;;;;4944378;28;36586;-76
2022/05/23 06:28:45;;;;;;;12.35;7.90;;;17.70;99.90;;;;;;4944076;28;38664;-75
2022/05/23 06:31:12;;;;;;;12.57;8.50;;;17.70;99.90;;;;;;4946283;28;38067;-75
2022/05/23 06:33:38;;;;;;;15.93;8.52;;;17.80;99.90;;;;;;4941565;28;38598;-75
2022/05/23 06:36:05;;;;;;;10.80;7.50;;;17.90;99.90;;;;;;4936093;28;36495;-80
2022/05/23 06:38:33;;;;;;;11.73;8.32;;;18.00;99.90;;;;;;4938191;28;39542;-74
2022/05/23 06:40:59;;;;;;;10.45;8.38;;;18.10;99.90;;;;;;4948951;28;37501;-75
2022/05/23 06:43:25;;;;;;;10.57;7.80;;;18.20;99.90;;;;;;4941914;28;38693;-74
2022/05/23 06:45:52;;;;;;;10.27;8.02;;;18.30;99.90;;;;;;4934893;28;36228;-74
2022/05/23 06:48:18;;;;;;;10.38;7.75;;;18.50;99.90;;;;;;4939738;28;38928;-75
2022/05/23 06:50:47;;;;;;;14.45;8.77;;;18.60;99.90;;;;;;4955770;28;38603;-76
2022/05/23 06:53:13;;;;;;;14.43;8.82;;;18.40;99.90;;;;;;4942455;28;38781;-75
2022/05/23 06:55:39;;;;;;;11.23;8.52;;;18.40;99.90;;;;;;4935718;28;36932;-77
2022/05/23 06:58:06;;;;;;;14.95;8.77;;;18.20;99.90;;;;;;4938685;28;38411;-76
2022/05/23 07:00:32;;;;;;;11.30;8.38;;;18.30;99.90;;;;;;4939192;28;38273;-74
2022/05/23 07:02:59;;;;;;;9.70;8.43;;;18.20;99.90;;;;;;4941320;28;40019;-76
2022/05/23 07:13:39;;;;;;;18.70;9.60;;;18.40;99.90;;;;;;4942254;28;49387;-75
2022/05/23 07:16:05;;;;;;;10.10;8.30;;;18.30;99.90;;;;;;4940236;28;36475;-75
2022/05/23 07:18:32;;;;;;;14.10;9.05;;;18.30;99.90;;;;;;4943490;28;39613;-75
2022/05/23 07:20:58;;;;;;;13.75;8.23;;;18.40;99.90;;;;;;4949905;28;37672;-75
2022/05/23 07:23:24;;;;;;;12.18;8.75;;;18.50;99.90;;;;;;4949421;28;38658;-74
2022/05/23 07:25:50;;;;;;;14.45;8.80;;;18.70;99.90;;;;;;4963746;28;36114;-74
2022/05/23 07:28:16;;;;;;;13.80;9.68;;;18.60;99.90;;;;;;4945640;28;38684;-74
2022/05/23 07:30:43;;;;;;;11.48;8.30;;;18.60;99.90;;;;;;4943688;28;39470;-74
2022/05/23 07:33:09;;;;;;;17.45;9.52;;;18.60;99.90;;;;;;4946814;28;39190;-77
2022/05/23 07:35:35;;;;;;;15.82;8.98;;;18.70;99.90;;;;;;4950702;28;36239;-77
2022/05/23 07:38:02;;;;;;;10.50;8.00;;;18.70;99.90;;;;;;4943102;28;39328;-76
2022/05/23 07:40:28;;;;;;;13.05;8.88;;;18.80;99.90;;;;;;4945811;28;47497;-80
2022/05/23 07:42:54;;;;;;;12.30;9.15;;;19.00;99.90;;;;;;4942256;28;39332;-81
2022/05/23 07:45:20;;;;;;;14.27;8.95;;;18.90;99.90;;;;;;4934399;28;37257;-78
2022/05/23 07:47:46;;;;;;;15.60;9.95;;;18.90;99.90;;;;;;4938729;28;39987;-78
2022/05/23 07:50:12;;;;;;;12.13;9.07;;;18.90;99.90;;;;;;4951321;28;38381;-79
2022/05/23 07:52:39;;;;;;;15.85;9.30;;;18.90;99.90;;;;;;4939058;28;38227;-78
2022/05/23 08:00:54;;;;;;;12.57;8.93;;;19.70;99.90;;;;;;4939950;28;39142;-77
2022/05/23 08:03:20;;;;;;;12.43;8.55;;;19.90;99.90;;;;;;4941920;28;39458;-77
2022/05/23 08:05:46;;;;;;;13.77;10.38;;;19.90;99.90;;;;;;4940135;28;37178;-77
2022/05/23 08:08:12;;;;;;;12.75;9.40;;;19.90;99.90;;;;;;4942287;28;38854;-77
2022/05/23 08:10:39;;;;;;;13.60;8.95;;;20.00;99.90;;;;;;4958316;28;39429;-77
2022/05/23 08:13:09;;;;;;;14.63;9.43;;;20.30;99.90;;;;;;4944111;28;38625;-79
2022/05/23 08:15:39;;;;;;;13.75;9.20;;;20.90;99.90;;;;;;4961206;28;37170;-77
2022/05/23 08:18:06;;;;;;;13.65;8.98;;;20.80;99.90;;;;;;4942692;28;37915;-78
2022/05/23 08:20:34;;;;;;;12.10;8.95;;;21.10;99.90;;;;;;4941270;28;39892;-80
2022/05/23 08:23:00;;;;;;;13.75;8.80;;;21.20;99.90;;;;;;4961909;28;39050;-79
2022/05/23 08:25:26;;;;;;;10.98;8.27;;;21.40;99.90;;;;;;4960116;28;37619;-80
2022/05/23 08:27:55;;;;;;;12.57;8.32;;;21.20;99.90;;;;;;4930899;28;37043;-80
2022/05/23 08:30:22;;;;;;;13.38;10.18;;;21.30;99.90;;;;;;4937862;28;37973;-79
2022/05/23 08:32:48;;;;;;;16.15;9.55;;;21.30;99.90;;;;;;4943132;28;39263;-79
2022/05/23 08:35:14;;;;;;;14.50;9.00;;;21.30;99.90;;;;;;4949070;28;36211;-79
2022/05/23 08:37:41;;;;;;;16.92;10.25;;;21.20;99.90;;;;;;4939182;28;38211;-79
2022/05/23 08:40:09;;;;;;;19.20;10.55;;;21.00;99.90;;;;;;4944825;28;38903;-76
2022/05/23 08:42:45;;;;;;;17.65;10.38;;;20.90;99.90;;;;;;4939189;28;37347;-80
2022/05/23 08:45:25;;;;;;;16.02;10.18;;;20.60;99.90;;;;;;4942215;28;38125;-80
2022/05/23 08:48:27;;;;;;;13.05;9.50;;;20.50;99.90;;;;;;4935500;28;38617;-78
2022/05/23 08:51:04;;;;;;;18.35;11.52;;;20.60;99.90;;;;;;4937462;28;47378;-77
2022/05/23 08:53:50;;;;;;;13.55;9.95;;;20.70;99.90;;;;;;4936267;28;47467;-78
2022/05/23 08:56:29;;;;;;;15.60;10.23;;;20.80;99.90;;;;;;4953333;28;36631;-74
2022/05/23 08:59:05;;;;;;;11.20;9.82;;;20.80;99.90;;;;;;4939139;28;38038;-79
2022/05/23 09:01:51;;;;;;;14.63;10.43;;;21.00;99.90;;;;;;4943216;28;48765;-78
2022/05/23 09:04:42;;;;;;;17.40;10.80;;;21.00;99.90;;;;;;4937930;28;40178;-78
2022/05/23 09:07:12;;;;;;;17.88;11.65;;;21.00;99.90;;;;;;4947472;28;36787;-78
2022/05/23 09:09:39;;;;;;;14.32;10.23;;;20.90;99.90;;;;;;4948389;28;38687;-78
2022/05/23 09:12:14;;;;;;;11.90;9.45;;;20.90;99.90;;;;;;4943778;28;39101;-78
2022/05/23 09:14:41;;;;;;;18.00;12.25;;;20.90;99.90;;;;;;4946376;28;37347;-78
2022/05/23 09:17:19;;;;;;;15.73;11.95;;;20.90;99.90;;;;;;4944444;28;36978;-78
2022/05/23 09:20:02;;;;;;;20.30;12.98;;;20.80;99.90;;;;;;4943856;28;39264;-78
2022/05/23 09:22:45;;;;;;;17.40;12.63;;;20.80;99.90;;;;;;4941348;28;48885;-78
2022/05/23 09:25:14;;;;;;;17.20;12.52;;;20.70;99.90;;;;;;4945846;28;39372;-78
2022/05/23 09:27:47;;;;;;;15.07;10.98;;;20.60;99.90;;;;;;4951401;28;36674;-76
2022/05/23 09:30:17;;;;;;;13.27;10.82;;;20.60;99.90;;;;;;4942594;28;38794;-78
2022/05/23 09:33:08;;;;;;;18.33;11.43;;;20.70;99.90;;;;;;4942308;28;37842;-79
2022/05/23 09:35:50;;;;;;;17.25;12.00;;;20.60;99.90;;;;;;4942408;28;47249;-78
2022/05/23 09:38:17;;;;;;;13.38;10.23;;;20.70;99.90;;;;;;4951022;28;36965;-79
2022/05/23 09:40:44;;;;;;;16.90;11.88;;;20.80;99.90;;;;;;4943287;28;37032;-75
2022/05/23 09:49:13;;;;;;;16.65;10.57;;;20.90;99.90;;;;;;4942750;28;49199;-77
2022/05/23 09:51:50;;;;;;;12.82;10.65;;;21.00;99.90;;;;;;4945679;28;40376;-77
2022/05/23 09:54:20;;;;;;;15.88;10.82;;;21.10;99.90;;;;;;4962462;28;39160;-77
2022/05/23 09:56:47;;;;;;;14.40;10.25;;;21.40;99.90;;;;;;4961438;28;38033;-78
2022/05/23 09:59:34;;;;;;;13.07;9.52;;;21.60;99.90;;;;;;4939384;28;36765;-79
2022/05/23 10:02:16;;;;;;;17.00;10.50;;;21.60;99.90;;;;;;4952009;28;37723;-78
2022/05/23 10:04:45;;;;;;;14.70;10.00;;;21.60;99.90;;;;;;4954844;28;47888;-80
2022/05/23 10:07:47;;;;;;;14.98;10.70;;;21.70;99.90;;;;;;4938614;28;39191;-81
2022/05/23 10:10:28;;;;;;;13.10;9.95;;;21.60;99.90;;;;;;4939805;28;36626;-80
2022/05/23 10:13:19;;;;;;;15.95;9.90;;;21.80;99.90;;;;;;4956072;28;36914;-78
2022/05/23 10:16:08;;;;;;;14.50;10.02;;;21.80;99.90;;;;;;4940793;28;48610;-78
2022/05/23 10:18:44;;;;;;;12.90;9.93;;;21.90;99.90;;;;;;4945580;28;48775;-78
2022/05/23 10:21:26;;;;;;;17.35;11.40;;;22.10;99.90;;;;;;4943185;28;36752;-77
2022/05/23 10:24:10;;;;;;;16.70;9.10;;;22.50;99.90;;;;;;4941197;28;38126;-81
2022/05/23 10:26:53;;;;;;;12.57;9.60;;;22.90;99.90;;;;;;4939087;28;48854;-80
2022/05/23 10:29:52;;;;;;;16.15;10.27;;;23.10;99.90;;;;;;4939759;28;37264;-76
2022/05/23 10:32:50;;;;;;;17.95;9.25;;;23.80;99.90;;;;;;4945199;28;37172;-75
2022/05/23 10:35:28;;;;;;;12.60;8.70;;;24.40;99.90;;;;;;4950626;28;39368;-74
2022/05/23 10:43:43;;;;;;;16.17;8.82;;;24.90;99.90;;;;;;4945450;28;49191;-74
2022/05/23 10:46:12;;;;;;;14.00;8.38;;;25.00;99.90;;;;;;4947425;28;39656;-75
2022/05/23 10:49:06;;;;;;;11.68;8.07;;;25.60;99.90;;;;;;4959858;28;38159;-75
2022/05/23 10:51:57;;;;;;;15.32;9.10;;;26.00;99.90;;;;;;4948903;28;47594;-76
2022/05/23 10:54:35;;;;;;;12.07;9.18;;;25.60;99.90;;;;;;4943415;28;37093;-75
2022/05/23 10:57:37;;;;;;;11.45;7.80;;;25.00;99.90;;;;;;4942947;28;39922;-75
2022/05/23 11:00:11;;;;;;;14.23;7.53;;;24.70;99.90;;;;;;4946244;28;38073;-76
2022/05/23 11:02:56;;;;;;;12.25;7.47;;;25.50;99.90;;;;;;4943097;28;38528;-75
2022/05/23 11:05:35;;;;;;;10.77;7.85;;;25.90;99.90;;;;;;4945102;28;37971;-74
2022/05/23 11:08:31;;;;;;;16.77;9.05;;;25.00;99.90;;;;;;4948543;28;38966;-75
2022/05/23 11:11:19;;;;;;;13.18;8.27;;;24.00;99.90;;;;;;4945663;28;48854;-75
2022/05/23 11:14:14;;;;;;;7.60;6.55;;;23.80;99.90;;;;;;4955695;28;47426;-74
2022/05/23 11:16:48;;;;;;;10.30;7.82;;;23.80;99.90;;;;;;4930799;28;47395;-75
2022/05/23 11:19:26;;;;;;;11.68;7.60;;;23.70;99.90;;;;;;4963933;28;37585;-75
2022/05/23 11:22:17;;;;;;;12.10;8.35;;;23.70;99.90;;;;;;4959826;28;38532;-75
2022/05/23 11:25:07;;;;;;;8.15;7.00;;;23.50;99.90;;;;;;4952809;28;49855;-76
2022/05/23 11:36:01;;;;;;;10.30;8.65;;;23.30;99.90;;;;;;4966381;28;39146;-77
2022/05/23 11:38:29;;;;;;;12.73;10.02;;;23.10;99.90;;;;;;4964517;28;49681;-77
2022/05/23 11:41:05;;;;;;;10.88;8.65;;;22.90;99.90;;;;;;4975531;28;38025;-76
2022/05/23 11:43:31;;;;;;;14.43;9.13;;;23.10;99.90;;;;;;4959964;28;46891;-76
2022/05/23 11:46:02;;;;;;;11.95;9.38;;;23.40;99.90;;;;;;4947175;28;39147;-76
2022/05/23 11:48:40;;;;;;;9.40;6.53;;;23.70;99.90;;;;;;4941017;28;48978;-76
2022/05/23 11:51:12;;;;;;;16.27;9.18;;;23.80;99.90;;;;;;4942428;28;40019;-75
2022/05/23 11:53:57;;;;;;;10.10;6.97;;;23.80;99.90;;;;;;4945637;28;38992;-79
2022/05/23 11:56:35;;;;;;;10.88;7.50;;;23.70;99.90;;;;;;4940783;28;38600;-79
2022/05/23 11:59:02;;;;;;;10.98;8.68;;;23.40;99.90;;;;;;4956606;28;37302;-79
2022/05/23 12:01:30;;;;;;;12.10;8.90;;;23.30;99.90;;;;;;4933499;28;37732;-79
2022/05/23 12:04:06;;;;;;;11.95;9.25;;;23.10;99.90;;;;;;4949129;28;39056;-80
2022/05/23 12:06:32;;;;;;;11.32;8.50;;;22.80;99.90;;;;;;4944173;28;47451;-79
2022/05/23 12:09:04;;;;;;;12.48;8.32;;;22.60;99.90;;;;;;4949338;28;37340;-79
2022/05/23 12:11:33;;;;;;;15.82;9.85;;;22.40;99.90;;;;;;4948687;28;48726;-80
2022/05/23 12:14:19;;;;;;;10.43;9.10;;;22.20;99.90;;;;;;4959528;28;38168;-79
2022/05/23 12:16:57;;;;;;;10.48;7.57;;;22.20;99.90;;;;;;4948019;28;48557;-80
2022/05/23 12:19:28;;;;;;;8.98;7.22;;;22.00;99.90;;;;;;4959951;28;37316;-79
2022/05/23 12:22:31;;;;;;;9.27;7.40;;;21.90;99.90;;;;;;4942931;28;38909;-79
2022/05/23 12:25:09;;;;;;;8.63;6.90;;;21.70;99.90;;;;;;4948558;28;48888;-79
2022/05/23 12:27:41;;;;;;;11.05;6.05;;;21.40;99.90;;;;;;4962097;28;47301;-78
2022/05/23 12:30:16;;;;;;;10.55;8.57;;;21.50;99.90;;;;;;4958338;28;36142;-79
2022/05/23 12:32:55;;;;;;;10.90;9.25;;;21.50;99.90;;;;;;4942994;28;38780;-79
2022/05/23 12:35:51;;;;;;;12.10;9.63;;;21.50;99.90;;;;;;4941709;28;39506;-79
2022/05/23 12:38:59;;;;;;;12.05;8.63;;;21.50;99.90;;;;;;4941707;28;37924;-79
2022/05/23 12:41:46;;;;;;;13.13;10.13;;;21.70;99.90;;;;;;4941828;28;38182;-79
2022/05/23 12:44:43;;;;;;;14.75;10.93;;;21.50;99.90;;;;;;4941269;28;38580;-77
2022/05/23 12:47:29;;;;;;;13.27;11.15;;;21.40;99.90;;;;;;4947857;28;38828;-80
2022/05/23 12:50:11;;;;;;;17.55;12.73;;;21.30;99.90;;;;;;4948890;28;38448;-79
2022/05/23 12:53:09;;;;;;;21.63;14.98;;;21.10;99.90;;;;;;4954358;28;48329;-80
2022/05/23 12:55:57;;;;;;;26.77;21.20;;;20.80;99.90;;;;;;4947659;28;47430;-77
2022/05/23 12:58:41;;;;;;;23.23;20.00;;;20.20;99.90;;;;;;4949470;28;38863;-78
2022/05/23 13:01:09;;;;;;;37.30;24.95;;;19.50;99.90;;;;;;4950513;28;38483;-76
2022/05/23 13:03:53;;;;;;;31.33;23.23;;;19.00;99.90;;;;;;4947954;28;37531;-78
2022/05/23 13:06:46;;;;;;;36.90;27.88;;;18.50;99.90;;;;;;4944094;28;39856;-80
2022/05/23 13:09:20;;;;;;;38.90;26.15;;;18.20;99.90;;;;;;4943992;28;37778;-79
2022/05/23 13:11:49;;;;;;;49.60;33.08;;;17.90;99.90;;;;;;4940670;28;38705;-79
2022/05/23 13:14:15;;;;;;;41.28;29.52;;;17.70;99.90;;;;;;4945471;28;37382;-80
2022/05/23 13:16:53;;;;;;;38.72;28.92;;;17.40;99.90;;;;;;4947248;28;39840;-80
2022/05/23 13:22:13;;;;;;;40.90;32.80;;;16.90;99.90;;;;;;4947203;28;37865;-79
2022/05/23 13:24:49;;;;;;;43.75;33.72;;;16.80;99.90;;;;;;4944123;28;37078;-81
2022/05/23 13:27:24;;;;;;;50.22;38.35;;;16.50;99.90;;;;;;4944535;28;38638;-81
2022/05/23 13:29:57;;;;;;;46.92;38.10;;;16.50;99.90;;;;;;4940087;28;38999;-82
2022/05/23 13:32:23;;;;;;;47.25;38.28;;;16.50;99.90;;;;;;4961176;28;39431;-85
2022/05/23 13:34:50;;;;;;;42.72;37.72;;;16.50;99.90;;;;;;4947230;28;38198;-83
2022/05/23 13:37:30;;;;;;;42.72;36.22;;;16.40;99.90;;;;;;4960185;28;39165;-81
2022/05/23 13:40:05;;;;;;;46.28;38.70;;;16.10;99.90;;;;;;4950409;28;39714;-84
2022/05/23 13:42:31;;;;;;;47.72;39.67;;;16.00;99.90;;;;;;4941292;28;48032;-79
2022/05/23 13:45:15;;;;;;;46.75;39.38;;;16.10;99.90;;;;;;4945065;28;38240;-84
2022/05/23 13:48:05;;;;;;;49.08;38.20;;;16.10;99.90;;;;;;4947411;28;49003;-83
2022/05/23 13:50:38;;;;;;;49.30;40.38;;;16.30;99.90;;;;;;4944970;28;48249;-79
2022/05/23 13:53:13;;;;;;;51.38;41.45;;;16.30;99.90;;;;;;4943816;28;38091;-85
2022/05/23 13:55:45;;;;;;;51.63;41.05;;;16.20;99.90;;;;;;4945607;28;38218;-85
2022/05/23 13:58:26;;;;;;;47.20;39.33;;;16.30;99.90;;;;;;4943342;28;39811;-85
2022/05/23 14:01:01;;;;;;;49.20;40.65;;;16.40;99.90;;;;;;4943513;28;39481;-85